Time;durP1;ratioP1;P1;durP2;ratioP2;P2;SDS_P1;SDS_P2;PMS_P1;PMS_P2;Temp;Humidity;BMP_temperature;BMP_pressure;BME280_temperature;BME280_humidity;BME280_pressure;Samples;Min_cycle;Max_cycle;Signal;HPM_P1;HPM_P2
2022/07/17 00:02:08;;;;;;;;;1.00;1.00;;;;;17.68;54.27;102751.72;5029201;28;9646;-67
2022/07/17 00:04:35;;;;;;;;;1.75;1.25;;;;;17.64;54.80;102748.53;5031062;28;8849;-66
2022/07/17 00:07:01;;;;;;;;;1.25;1.25;;;;;17.63;54.76;102746.84;5031311;28;8840;-67
2022/07/17 00:09:28;;;;;;;;;0.00;0.00;;;;;17.62;54.45;102752.47;5027404;28;8811;-67
2022/07/17 00:11:54;;;;;;;;;1.00;0.75;;;;;17.62;54.59;102747.03;5010715;28;8843;-67
2022/07/17 00:14:21;;;;;;;;;0.00;0.00;;;;;17.60;54.54;102758.13;5027830;28;8906;-66
2022/07/17 00:16:48;;;;;;;;;0.00;0.00;;;;;17.58;54.71;102743.00;5019917;28;8930;-67
2022/07/17 00:19:14;;;;;;;;;1.00;0.00;;;;;17.58;54.72;102738.41;5030810;28;8817;-67
2022/07/17 00:21:42;;;;;;;;;2.00;2.00;;;;;17.55;54.46;102742.38;5031372;28;8846;-67
2022/07/17 00:24:08;;;;;;;;;3.00;2.00;;;;;17.54;54.87;102737.97;5029646;28;8828;-67
2022/07/17 00:26:35;;;;;;;;;2.00;1.00;;;;;17.53;54.73;102738.97;5013292;28;9047;-66
2022/07/17 00:29:03;;;;;;;;;1.50;1.50;;;;;17.54;54.80;102737.09;5022689;28;9543;-66
2022/07/17 00:31:30;;;;;;;;;3.33;2.33;;;;;17.51;54.94;102746.53;5029685;28;8844;-66
2022/07/17 00:33:57;;;;;;;;;2.50;2.50;;;;;17.47;55.00;102739.78;5030860;28;8904;-66
2022/07/17 00:36:23;;;;;;;;;2.00;2.00;;;;;17.43;55.09;102738.47;5030764;28;9602;-66
2022/07/17 00:38:50;;;;;;;;;1.00;1.00;;;;;17.39;55.06;102733.63;5030737;28;8951;-67
2022/07/17 00:41:16;;;;;;;;;3.00;3.00;;;;;17.34;55.25;102733.31;5011923;28;8834;-66
2022/07/17 00:43:45;;;;;;;;;1.75;1.00;;;;;17.28;55.65;102733.06;5026172;28;9057;-66
2022/07/17 00:46:12;;;;;;;;;2.75;2.75;;;;;17.26;55.79;102747.94;5027892;28;8821;-66
2022/07/17 00:48:38;;;;;;;;;2.00;2.00;;;;;17.25;55.75;102747.06;5029439;28;8859;-67
2022/07/17 00:51:07;;;;;;;;;1.25;1.25;;;;;17.22;56.00;102747.47;5030109;28;9140;-66
2022/07/17 00:53:35;;;;;;;;;3.00;2.25;;;;;17.17;56.09;102747.19;5030772;28;8835;-67
2022/07/17 00:56:06;;;;;;;;;2.00;1.50;;;;;17.16;56.02;102750.94;5026132;28;8823;-67
2022/07/17 00:58:36;;;;;;;;;1.00;1.00;;;;;17.14;55.93;102744.03;5024825;28;8817;-66
2022/07/17 01:01:06;;;;;;;;;0.00;0.00;;;;;17.13;56.47;102742.31;5025700;28;8849;-66
2022/07/17 01:03:33;;;;;;;;;1.00;1.00;;;;;17.11;56.22;102738.94;5030383;28;8836;-66
2022/07/17 01:06:05;;;;;;;;;3.25;2.00;;;;;17.11;56.40;102736.22;5028021;28;8822;-66
2022/07/17 01:08:33;;;;;;;;;1.00;1.00;;;;;17.12;56.08;102735.19;5029089;28;8819;-66
2022/07/17 01:11:03;;;;;;;;;1.00;1.00;;;;;17.12;56.25;102718.88;5013488;28;8911;-66
2022/07/17 01:13:37;;;;;;;;;2.00;1.00;;;;;17.11;56.30;102726.19;5013440;28;8917;-66
2022/07/17 01:16:07;;;;;;;;;0.75;0.75;;;;;17.08;56.39;102721.13;5011771;28;8951;-67
2022/07/17 01:18:38;;;;;;;;;1.75;1.00;;;;;17.03;56.43;102723.56;5011539;28;8898;-65
2022/07/17 01:21:12;;;;;;;;;1.67;1.67;;;;;16.97;56.84;102722.44;5025889;28;8862;-66
2022/07/17 01:23:51;;;;;;;;;1.00;1.00;;;;;16.92;56.69;102722.19;5010294;28;8920;-67
2022/07/17 01:26:33;;;;;;;;;2.00;2.00;;;;;16.91;57.18;102722.38;5026280;28;9573;-66
2022/07/17 01:29:18;;;;;;;;;2.67;2.00;;;;;16.88;56.95;102714.59;5023820;28;8847;-66
2022/07/17 01:32:16;;;;;;;;;2.00;2.00;;;;;16.85;57.14;102718.53;5019514;28;9036;-67
2022/07/17 01:34:51;;;;;;;;;1.75;1.00;;;;;16.83;57.32;102723.34;5023429;28;8907;-66
2022/07/17 01:37:21;;;;;;;;;1.50;1.50;;;;;16.82;57.23;102721.66;5012757;28;8845;-66
2022/07/17 01:39:52;;;;;;;;;1.00;1.00;;;;;16.80;57.18;102720.97;5029165;28;9706;-66
2022/07/17 01:42:23;;;;;;;;;1.00;1.00;;;;;16.79;57.54;102725.59;5029495;28;8935;-66
2022/07/17 01:44:52;;;;;;;;;0.50;0.50;;;;;16.78;57.67;102715.75;5025723;28;8813;-66
2022/07/17 01:47:20;;;;;;;;;1.00;1.00;;;;;16.75;57.60;102709.84;5030993;28;9619;-66
2022/07/17 01:49:55;;;;;;;;;1.00;1.00;;;;;16.76;57.85;102717.78;5014689;28;8842;-66
2022/07/17 01:52:25;;;;;;;;;3.33;2.00;;;;;16.73;58.16;102725.47;5013041;28;8854;-67
2022/07/17 01:54:54;;;;;;;;;0.75;0.75;;;;;16.68;58.08;102722.47;5021347;28;8911;-66
2022/07/17 01:57:25;;;;;;;;;1.00;1.00;;;;;16.65;58.17;102718.28;5028280;28;8856;-66
2022/07/17 01:59:54;;;;;;;;;1.00;1.00;;;;;16.62;58.74;102721.34;5026214;28;8929;-67
2022/07/17 02:02:22;;;;;;;;;1.00;1.00;;;;;16.60;58.66;102726.13;5030699;28;8833;-66
2022/07/17 02:04:54;;;;;;;;;2.67;1.00;;;;;16.58;58.74;102730.09;5024072;28;8916;-65
2022/07/17 02:07:22;;;;;;;;;1.00;1.00;;;;;16.55;58.87;102731.28;5033580;28;8967;-66
2022/07/17 02:09:53;;;;;;;;;1.00;1.00;;;;;16.52;58.79;102740.66;5033189;28;8983;-67
2022/07/17 02:12:23;;;;;;;;;1.00;1.00;;;;;16.50;59.03;102737.28;5033832;28;8985;-67
2022/07/17 02:14:52;;;;;;;;;1.67;1.67;;;;;16.48;59.25;102739.34;5026250;28;9082;-66
2022/07/17 02:17:23;;;;;;;;;0.00;0.00;;;;;16.46;59.34;102737.84;5028799;28;9016;-66
2022/07/17 02:19:52;;;;;;;;;0.00;0.00;;;;;16.43;59.42;102730.91;5018820;28;8928;-66
2022/07/17 02:22:24;;;;;;;;;0.67;0.67;;;;;16.42;59.39;102728.38;5033476;28;8951;-66
2022/07/17 02:24:55;;;;;;;;;1.00;1.00;;;;;16.38;59.70;102732.50;5025758;28;9035;-66
2022/07/17 02:27:26;;;;;;;;;2.00;2.00;;;;;16.36;59.64;102723.69;5013370;28;9185;-65
2022/07/17 02:29:57;;;;;;;;;0.00;0.00;;;;;16.37;59.74;102725.41;5020485;28;8977;-66
2022/07/17 02:32:35;;;;;;;;;1.00;1.00;;;;;16.37;59.84;102723.53;5033948;28;8987;-65
2022/07/17 02:35:14;;;;;;;;;1.33;1.00;;;;;16.38;59.64;102727.06;5032932;28;9095;-66
2022/07/17 02:37:45;;;;;;;;;1.67;1.67;;;;;16.36;59.90;102729.97;5032083;28;8963;-66
2022/07/17 02:40:13;;;;;;;;;1.00;1.00;;;;;16.35;59.85;102728.28;5024950;28;9090;-66
2022/07/17 02:42:40;;;;;;;;;3.67;2.00;;;;;16.34;59.78;102725.75;5032334;28;8929;-66
2022/07/17 02:45:12;;;;;;;;;2.00;2.00;;;;;16.32;60.06;102734.09;5027553;28;8949;-66
2022/07/17 02:47:44;;;;;;;;;1.00;1.00;;;;;16.30;60.31;102725.28;5032829;28;9022;-67
2022/07/17 02:50:18;;;;;;;;;1.00;1.00;;;;;16.29;60.08;102729.88;5031176;28;9091;-66
2022/07/17 02:53:08;;;;;;;;;0.67;0.67;;;;;16.28;60.63;102740.91;5029033;28;9089;-66
2022/07/17 02:55:47;;;;;;;;;0.00;0.00;;;;;16.29;60.41;102748.06;5031730;28;8992;-66
2022/07/17 02:58:17;;;;;;;;;1.00;1.00;;;;;16.29;60.39;102756.22;5032643;28;8983;-66
2022/07/17 03:00:50;;;;;;;;;0.67;0.67;;;;;16.29;60.50;102753.50;5029295;28;9717;-66
2022/07/17 03:03:20;;;;;;;;;3.00;1.67;;;;;16.28;60.39;102741.75;5032070;28;9740;-66
2022/07/17 03:05:53;;;;;;;;;3.00;1.00;;;;;16.28;60.40;102739.03;5026926;28;9102;-66
2022/07/17 03:08:23;;;;;;;;;0.00;0.00;;;;;16.29;60.87;102742.63;5013840;28;9175;-66
2022/07/17 03:10:52;;;;;;;;;1.00;1.00;;;;;16.29;61.02;102742.63;5028153;28;8996;-66
2022/07/17 03:13:19;;;;;;;;;1.00;1.00;;;;;16.29;60.67;102737.19;5013410;28;9088;-66
2022/07/17 03:15:48;;;;;;;;;2.00;2.00;;;;;16.28;60.96;102739.03;5026788;28;8986;-66
2022/07/17 03:18:19;;;;;;;;;1.00;1.00;;;;;16.28;60.45;102732.75;5032574;28;9047;-66
2022/07/17 03:20:50;;;;;;;;;0.33;0.33;;;;;16.29;60.70;102743.47;5025679;28;9064;-66
2022/07/17 03:23:21;;;;;;;;;1.00;1.00;;;;;16.29;60.50;102740.75;5029975;28;9138;-66
2022/07/17 03:25:53;;;;;;;;;1.33;0.33;;;;;16.30;60.21;102750.59;5028760;28;9095;-66
2022/07/17 03:28:22;;;;;;;;;0.00;0.00;;;;;16.31;60.02;102743.28;5021795;28;9010;-67
2022/07/17 03:30:53;;;;;;;;;0.00;0.00;;;;;16.30;60.00;102744.31;5015104;28;9112;-66
2022/07/17 03:33:27;;;;;;;;;0.00;0.00;;;;;16.30;59.56;102747.03;5024070;28;8947;-65
2022/07/17 03:35:56;;;;;;;;;0.33;0.33;;;;;16.29;59.39;102751.63;5031012;28;9150;-66
2022/07/17 03:38:27;;;;;;;;;1.00;1.00;;;;;16.29;58.96;102748.91;5031669;28;8987;-67
2022/07/17 03:40:56;;;;;;;;;0.00;0.00;;;;;16.30;59.11;102747.88;5031650;28;8936;-65
2022/07/17 03:43:24;;;;;;;;;0.00;0.00;;;;;16.30;59.17;102755.19;5032137;28;9006;-66
2022/07/17 03:45:55;;;;;;;;;0.00;0.00;;;;;16.28;59.36;102758.06;5027451;28;9080;-66
2022/07/17 03:48:26;;;;;;;;;2.67;1.00;;;;;16.25;59.45;102761.19;5027090;28;9067;-66
2022/07/17 03:50:54;;;;;;;;;0.00;0.00;;;;;16.23;59.54;102759.66;5025668;28;9229;-66
2022/07/17 03:53:23;;;;;;;;;1.00;1.00;;;;;16.22;59.24;102757.97;5032085;28;8928;-66
2022/07/17 03:55:51;;;;;;;;;0.00;0.00;;;;;16.20;59.33;102757.31;5023217;28;8981;-66
2022/07/17 03:58:22;;;;;;;;;0.67;0.67;;;;;16.16;59.45;102748.69;5011893;28;9787;-66
2022/07/17 04:00:53;;;;;;;;;1.00;1.00;;;;;16.18;59.38;102743.91;5028150;28;9091;-66
2022/07/17 04:03:21;;;;;;;;;0.00;0.00;;;;;16.19;58.94;102747.47;5022197;28;9728;-66
2022/07/17 04:05:52;;;;;;;;;0.00;0.00;;;;;16.19;59.14;102748.31;5025899;28;9680;-66
2022/07/17 04:08:21;;;;;;;;;0.00;0.00;;;;;16.20;58.94;102758.16;5031487;28;9806;-66
2022/07/17 04:10:49;;;;;;;;;0.00;0.00;;;;;16.21;59.26;102757.13;5030837;28;8938;-66
2022/07/17 04:13:18;;;;;;;;;1.00;1.00;;;;;16.22;59.32;102756.09;5031610;28;9686;-66
2022/07/17 04:15:49;;;;;;;;;0.00;0.00;;;;;16.23;59.32;102770.53;5026581;28;8839;-66
2022/07/17 04:18:21;;;;;;;;;0.00;0.00;;;;;16.20;59.12;102773.59;5024309;28;9697;-66
2022/07/17 04:20:50;;;;;;;;;1.00;1.00;;;;;16.19;59.64;102774.66;5028682;28;9743;-66
2022/07/17 04:23:18;;;;;;;;;0.00;0.00;;;;;16.17;59.12;102774.84;5030667;28;9162;-66
2022/07/17 04:25:47;;;;;;;;;2.33;1.00;;;;;16.15;59.94;102782.31;5030477;28;9183;-65
2022/07/17 04:28:15;;;;;;;;;1.00;1.00;;;;;16.13;59.72;102768.09;5030832;28;9152;-66
2022/07/17 04:30:45;;;;;;;;;1.00;1.00;;;;;16.12;59.80;102766.38;5029527;28;9151;-67
2022/07/17 04:33:32;;;;;;;;;0.33;0.33;;;;;16.13;59.62;102759.09;5022788;28;9252;-65
2022/07/17 04:36:19;;;;;;;;;0.67;0.67;;;;;16.14;59.40;102758.06;5051938;22;9806;-67
2022/07/17 04:38:46;;;;;;;;;1.00;0.00;;;;;16.14;59.36;102756.19;5053448;28;9060;-67
2022/07/17 04:41:12;;;;;;;;;1.00;1.00;;;;;16.16;59.23;102753.28;5051632;28;8986;-67
2022/07/17 04:43:39;;;;;;;;;1.00;1.00;;;;;16.18;58.76;102753.94;5034709;28;9137;-67
2022/07/17 04:46:05;;;;;;;;;1.00;1.00;;;;;16.20;58.35;102751.88;5051272;28;9102;-67
2022/07/17 04:48:32;;;;;;;;;1.00;1.00;;;;;16.21;58.41;102757.13;5041678;28;9103;-67
2022/07/17 04:50:58;;;;;;;;;1.00;1.00;;;;;16.24;57.95;102759.47;5038939;28;9194;-67
2022/07/17 04:53:25;;;;;;;;;0.00;0.00;;;;;16.27;58.07;102748.22;5032794;28;9171;-67
2022/07/17 04:55:51;;;;;;;;;0.00;0.00;;;;;16.30;57.73;102730.72;5048780;28;9040;-67
2022/07/17 04:58:18;;;;;;;;;0.33;0.00;;;;;16.34;57.67;102720.31;5044520;28;9044;-67
2022/07/17 05:00:45;;;;;;;;;0.00;0.00;;;;;16.36;57.20;102723.69;5046310;28;9095;-67
2022/07/17 05:03:11;;;;;;;;;0.33;0.33;;;;;16.39;57.23;102721.44;5045114;28;8997;-67
2022/07/17 05:05:40;;;;;;;;;0.00;0.00;;;;;16.41;56.67;102715.84;5050790;28;9003;-67
2022/07/17 05:08:06;;;;;;;;;1.00;1.00;;;;;16.44;56.49;102720.88;5034913;28;9054;-67
2022/07/17 05:10:33;;;;;;;;;1.00;0.00;;;;;16.45;56.41;102725.31;5049884;28;9055;-67
2022/07/17 05:12:59;;;;;;;;;1.00;1.00;;;;;16.37;55.76;102741.72;5052924;28;9063;-67
2022/07/17 05:15:25;;;;;;;;;0.00;0.00;;;;;16.27;56.41;102744.69;5048675;28;9084;-67
2022/07/17 05:17:52;;;;;;;;;0.00;0.00;;;;;16.34;56.57;102750.22;5043058;28;9048;-67
2022/07/17 05:20:18;;;;;;;;;1.00;0.00;;;;;16.40;56.38;102747.59;5052738;28;9196;-67
2022/07/17 05:22:45;;;;;;;;;0.00;0.00;;;;;16.47;56.21;102750.41;5051154;28;8986;-67
2022/07/17 05:25:11;;;;;;;;;0.00;0.00;;;;;16.48;55.77;102760.25;5052051;28;9097;-67
2022/07/17 05:27:38;;;;;;;;;1.67;0.67;;;;;16.53;55.98;102763.28;5035903;28;9108;-67
2022/07/17 05:30:05;;;;;;;;;0.67;0.67;;;;;16.55;56.20;102753.03;5033399;28;9094;-67
2022/07/17 05:32:31;;;;;;;;;0.00;0.00;;;;;16.56;56.33;102755.56;5027031;28;9021;-66
2022/07/17 05:34:58;;;;;;;;;0.33;0.00;;;;;16.54;56.34;102764.94;5052749;28;8911;-67
2022/07/17 05:37:24;;;;;;;;;0.00;0.00;;;;;16.53;56.18;102761.41;5049659;28;9717;-66
2022/07/17 05:39:51;;;;;;;;;0.00;0.00;;;;;16.61;56.66;102760.47;5052605;28;9091;-67
2022/07/17 05:42:17;;;;;;;;;0.00;0.00;;;;;16.76;56.48;102765.91;5034679;28;8972;-67
2022/07/17 05:44:44;;;;;;;;;0.00;0.00;;;;;17.00;55.72;102775.66;5049066;28;8828;-67
2022/07/17 05:47:11;;;;;;;;;0.00;0.00;;;;;17.24;54.89;102772.59;5039184;28;8847;-67
2022/07/17 05:49:37;;;;;;;;;0.75;0.75;;;;;17.48;54.00;102776.84;5044745;28;8939;-67
2022/07/17 05:52:04;;;;;;;;;0.50;0.00;;;;;17.69;53.70;102783.34;5045452;28;8816;-67
2022/07/17 05:54:32;;;;;;;;;0.75;0.00;;;;;17.92;53.98;102780.47;5034570;28;8902;-67
2022/07/17 05:57:00;;;;;;;;;0.00;0.00;;;;;18.11;53.50;102782.53;5050463;28;8914;-67
2022/07/17 05:59:34;;;;;;;;;1.00;1.00;;;;;18.28;52.66;102794.81;5043109;28;8816;-67
2022/07/17 06:02:00;;;;;;;;;0.00;0.00;;;;;18.43;52.68;102799.31;5043121;28;8902;-66
2022/07/17 06:04:27;;;;;;;;;1.00;1.00;;;;;18.52;52.22;102803.59;5049071;28;9538;-68
2022/07/17 06:06:53;;;;;;;;;0.00;0.00;;;;;18.50;50.78;102801.03;5050059;28;8831;-66
2022/07/17 06:09:20;;;;;;;;;0.25;0.25;;;;;18.51;50.99;102804.63;5042927;28;8832;-69
2022/07/17 06:11:46;;;;;;;;;0.00;0.00;;;;;18.49;51.00;102807.56;5050762;28;8835;-66
2022/07/17 06:14:13;;;;;;;;;0.00;0.00;;;;;18.49;50.80;102814.91;5049067;28;8960;-66
2022/07/17 06:16:39;;;;;;;;;0.00;0.00;;;;;18.49;50.93;102817.63;5040100;28;8816;-66
2022/07/17 06:19:06;;;;;;;;;0.00;0.00;;;;;18.49;50.67;102814.91;5041480;28;8958;-66
2022/07/17 06:21:33;;;;;;;;;0.00;0.00;;;;;18.48;50.34;102819.50;5048580;28;8831;-66
2022/07/17 06:23:59;;;;;;;;;0.00;0.00;;;;;18.44;50.29;102823.69;5032524;28;8835;-68
2022/07/17 06:26:26;;;;;;;;;0.00;0.00;;;;;18.40;50.15;102821.53;5049823;28;8842;-67
2022/07/17 06:28:52;;;;;;;;;0.00;0.00;;;;;18.40;49.84;102830.56;5045573;28;8930;-68
2022/07/17 06:31:19;;;;;;;;;1.00;0.00;;;;;18.38;50.20;102827.19;5046699;28;8890;-67
2022/07/17 06:33:46;;;;;;;;;0.00;0.00;;;;;18.20;50.11;102822.22;5037039;28;8857;-67
2022/07/17 06:36:12;;;;;;;;;0.00;0.00;;;;;18.15;50.33;102819.25;5054215;28;8839;-67
2022/07/17 06:38:38;;;;;;;;;0.75;0.00;;;;;18.16;50.82;102817.38;5048905;28;8843;-67
2022/07/17 06:41:05;;;;;;;;;0.75;0.00;;;;;18.15;50.51;102816.53;5053060;28;8896;-66
2022/07/17 06:43:32;;;;;;;;;0.00;0.00;;;;;18.16;50.74;102812.75;5045079;28;8840;-67
2022/07/17 06:45:58;;;;;;;;;0.00;0.00;;;;;18.15;50.37;102812.94;5048390;28;8813;-67
2022/07/17 06:48:25;;;;;;;;;0.00;0.00;;;;;18.08;50.51;102807.44;5038787;28;8809;-67
2022/07/17 06:50:51;;;;;;;;;0.00;0.00;;;;;18.08;50.85;102812.06;5042201;28;9618;-67
2022/07/17 06:53:18;;;;;;;;;0.25;0.25;;;;;18.11;50.92;102809.78;5032406;28;8840;-67
2022/07/17 06:55:44;;;;;;;;;0.00;0.00;;;;;18.12;51.05;102807.91;5045157;28;8907;-67
2022/07/17 06:58:11;;;;;;;;;0.00;0.00;;;;;18.14;51.27;102803.91;5039882;28;8816;-68
2022/07/17 07:00:39;;;;;;;;;0.00;0.00;;;;;18.16;51.33;102807.31;5039765;28;8839;-66
2022/07/17 07:03:06;;;;;;;;;1.00;1.00;;;;;18.14;51.24;102813.97;5048368;28;8828;-66
2022/07/17 07:05:33;;;;;;;;;0.25;0.00;;;;;18.11;51.26;102814.38;5043689;28;8840;-67
2022/07/17 07:07:59;;;;;;;;;0.00;0.00;;;;;18.12;51.64;102810.63;5046469;28;8841;-67
2022/07/17 07:10:26;;;;;;;;;1.00;0.00;;;;;18.13;51.53;102815.03;5044501;28;8896;-66
2022/07/17 07:12:53;;;;;;;;;0.25;0.25;;;;;18.13;51.66;102813.13;5042747;28;8943;-67
2022/07/17 07:15:19;;;;;;;;;0.00;0.00;;;;;18.14;51.77;102814.81;5042503;28;8819;-67
2022/07/17 07:17:46;;;;;;;;;0.00;0.00;;;;;18.18;51.83;102812.53;5035198;28;8843;-67
2022/07/17 07:20:12;;;;;;;;;0.00;0.00;;;;;18.18;51.50;102810.66;5043261;28;9551;-66
2022/07/17 07:22:39;;;;;;;;;0.00;0.00;;;;;18.17;51.34;102817.16;5044407;28;8809;-66
2022/07/17 07:25:08;;;;;;;;;0.00;0.00;;;;;18.19;51.77;102820.53;5038962;28;8855;-66
2022/07/17 07:27:35;;;;;;;;;0.00;0.00;;;;;18.19;51.44;102819.66;5046663;28;8829;-66
2022/07/17 07:30:02;;;;;;;;;0.00;0.00;;;;;18.20;51.31;102811.31;5046337;28;8971;-66
2022/07/17 07:32:28;;;;;;;;;0.00;0.00;;;;;18.21;51.24;102810.28;5040136;28;8854;-67
2022/07/17 07:34:55;;;;;;;;;0.25;0.25;;;;;18.26;51.48;102810.50;5046256;28;8816;-66
2022/07/17 07:37:21;;;;;;;;;0.00;0.00;;;;;18.32;51.62;102824.41;5054243;28;8927;-66
2022/07/17 07:39:47;;;;;;;;;0.00;0.00;;;;;18.38;51.70;102809.97;5054353;28;8848;-66
2022/07/17 07:42:14;;;;;;;;;0.00;0.00;;;;;18.39;51.29;102811.66;5048017;28;8835;-68
2022/07/17 07:44:41;;;;;;;;;0.50;0.50;;;;;18.42;51.23;102814.84;5043003;28;8827;-66
2022/07/17 07:47:07;;;;;;;;;0.00;0.00;;;;;18.46;51.21;102812.56;5053327;28;8816;-67
2022/07/17 07:49:34;;;;;;;;;0.25;0.00;;;;;18.52;51.21;102806.31;5048616;28;8985;-66
2022/07/17 07:52:08;;;;;;;;;0.25;0.00;;;;;18.60;50.94;102799.88;5038029;28;8843;-67
2022/07/17 07:54:37;;;;;;;;;0.00;0.00;;;;;18.58;50.26;102799.22;5047480;28;8809;-65
2022/07/17 07:57:03;;;;;;;;;0.00;0.00;;;;;18.59;50.51;102803.63;5046426;28;8834;-66
2022/07/17 07:59:33;;;;;;;;;0.50;0.00;;;;;18.58;50.24;102794.59;5041903;28;8812;-66
2022/07/17 08:02:01;;;;;;;;;0.00;0.00;;;;;18.62;50.21;102795.03;5048648;28;8854;-66
2022/07/17 08:04:28;;;;;;;;;0.25;0.00;;;;;18.69;50.29;102796.78;5045481;28;8812;-65
2022/07/17 08:06:56;;;;;;;;;1.00;0.00;;;;;18.77;50.24;102796.66;5045142;28;8831;-67
2022/07/17 08:09:23;;;;;;;;;0.00;0.00;;;;;18.84;49.77;102793.09;5052239;28;8852;-66
2022/07/17 08:11:50;;;;;;;;;0.50;0.00;;;;;18.92;50.17;102803.84;5041632;28;8815;-66
2022/07/17 08:14:16;;;;;;;;;0.00;0.00;;;;;18.95;49.58;102800.72;5046826;28;9823;-66
2022/07/17 08:16:43;;;;;;;;;0.75;0.75;;;;;18.93;49.36;102797.38;5038550;28;8973;-66
2022/07/17 08:19:10;;;;;;;;;0.00;0.00;;;;;18.96;49.89;102800.53;5050762;28;8817;-66
2022/07/17 08:21:37;;;;;;;;;0.00;0.00;;;;;18.99;49.88;102804.72;5036822;28;8857;-66
2022/07/17 08:24:06;;;;;;;;;0.00;0.00;;;;;18.98;49.86;102813.97;5036416;28;8906;-65
2022/07/17 08:26:32;;;;;;;;;1.00;1.00;;;;;19.02;49.90;102809.78;5041597;28;8838;-65
2022/07/17 08:28:59;;;;;;;;;1.00;1.00;;;;;19.11;49.53;102807.72;5039495;28;8920;-66
2022/07/17 08:31:25;;;;;;;;;0.00;0.00;;;;;19.17;48.91;102806.94;5041072;28;8824;-66
2022/07/17 08:33:52;;;;;;;;;0.25;0.25;;;;;19.22;48.88;102802.53;5041220;28;8854;-67
2022/07/17 08:36:19;;;;;;;;;1.00;1.00;;;;;19.25;48.92;102798.56;5034019;28;8890;-66
2022/07/17 08:38:45;;;;;;;;;0.25;0.25;;;;;19.31;49.14;102795.00;5049501;28;8847;-66
2022/07/17 08:41:16;;;;;;;;;0.00;0.00;;;;;19.34;48.85;102791.03;5041343;28;8842;-66
2022/07/17 08:43:43;;;;;;;;;1.00;1.00;;;;;19.33;48.69;102800.28;5047912;28;8836;-67
2022/07/17 08:46:11;;;;;;;;;0.00;0.00;;;;;19.34;48.27;102800.06;5046664;28;9573;-67
2022/07/17 08:48:40;;;;;;;;;1.00;1.00;;;;;19.34;49.00;102802.78;5043248;28;9527;-66
2022/07/17 08:51:09;;;;;;;;;0.00;0.00;;;;;19.38;49.00;102806.78;5038911;28;8842;-67
2022/07/17 08:53:36;;;;;;;;;0.75;0.75;;;;;19.48;48.77;102804.50;5022436;28;8835;-67
2022/07/17 08:56:03;;;;;;;;;0.25;0.25;;;;;19.48;48.55;102809.13;5047187;28;8958;-66
2022/07/17 08:58:30;;;;;;;;;0.50;0.50;;;;;19.46;48.71;102803.03;5044291;28;8943;-66
2022/07/17 09:00:56;;;;;;;;;1.00;1.00;;;;;19.48;48.41;102799.03;5048582;28;8825;-67
2022/07/17 09:03:23;;;;;;;;;1.00;1.00;;;;;19.57;48.21;102804.31;5052443;28;8828;-66
2022/07/17 09:05:50;;;;;;;;;0.00;0.00;;;;;19.65;48.08;102799.53;5051564;28;8836;-67
2022/07/17 09:08:23;;;;;;;;;2.00;0.50;;;;;19.68;47.38;102792.81;5052167;28;8824;-67
2022/07/17 09:10:53;;;;;;;;;0.00;0.00;;;;;19.69;47.12;102789.88;5042548;28;8821;-66
2022/07/17 09:13:24;;;;;;;;;1.00;0.00;;;;;19.82;46.46;102794.53;5035955;28;8945;-67
2022/07/17 09:15:53;;;;;;;;;1.00;1.00;;;;;19.91;46.46;102789.69;5042024;28;8853;-67
2022/07/17 09:18:20;;;;;;;;;0.00;0.00;;;;;19.92;46.58;102794.94;5044258;28;8827;-67
2022/07/17 09:20:55;;;;;;;;;1.00;0.00;;;;;19.97;46.39;102792.44;5039110;28;9607;-66
2022/07/17 09:23:25;;;;;;;;;0.25;0.00;;;;;19.97;45.78;102792.44;5038651;28;9584;-66
2022/07/17 09:25:54;;;;;;;;;1.00;1.00;;;;;20.03;45.03;102798.13;5049871;28;8813;-67
2022/07/17 09:28:23;;;;;;;;;0.75;0.75;;;;;20.06;44.83;102806.75;5051138;28;8820;-67
2022/07/17 09:30:52;;;;;;;;;0.00;0.00;;;;;20.14;44.43;102798.34;5051083;28;8812;-66
2022/07/17 09:33:22;;;;;;;;;1.00;1.00;;;;;20.18;43.80;102801.50;5051453;28;8845;-66
2022/07/17 09:35:57;;;;;;;;;1.00;1.00;;;;;20.20;43.77;102797.47;5051357;28;8817;-66
2022/07/17 09:38:42;;;;;;;;;1.00;1.00;;;;;20.25;44.22;102800.44;5051880;28;8816;-66
2022/07/17 09:41:15;;;;;;;;;0.00;0.00;;;;;20.38;44.88;102798.75;5030391;28;9617;-66
2022/07/17 09:43:44;;;;;;;;;1.00;0.00;;;;;20.42;45.31;102802.75;5032565;28;8858;-66
2022/07/17 09:46:32;;;;;;;;;0.00;0.00;;;;;20.49;45.32;102801.69;5037148;28;8839;-66
2022/07/17 09:49:09;;;;;;;;;0.00;0.00;;;;;20.53;45.50;102793.91;5031035;28;8847;-66
2022/07/17 09:51:39;;;;;;;;;0.00;0.00;;;;;20.56;46.10;102793.47;5031470;28;8862;-66
2022/07/17 09:54:08;;;;;;;;;0.00;0.00;;;;;20.62;45.37;102789.91;5046226;28;8934;-66
2022/07/17 09:56:36;;;;;;;;;0.75;0.75;;;;;20.64;45.23;102787.78;5040984;28;8834;-66
2022/07/17 09:59:05;;;;;;;;;1.00;1.00;;;;;20.59;45.17;102786.75;5045528;28;8953;-66
2022/07/17 10:01:33;;;;;;;;;0.00;0.00;;;;;20.58;45.11;102782.31;5038472;28;9526;-66
2022/07/17 10:04:01;;;;;;;;;0.00;0.00;;;;;20.58;44.70;102791.38;5025031;28;8861;-65
2022/07/17 10:06:28;;;;;;;;;0.00;0.00;;;;;20.64;45.42;102784.19;5045917;28;8830;-67
2022/07/17 10:08:56;;;;;;;;;0.00;0.00;;;;;20.76;45.44;102778.91;5046150;28;8827;-67
2022/07/17 10:11:25;;;;;;;;;1.00;1.00;;;;;20.82;45.02;102786.25;5046803;28;8974;-66
2022/07/17 10:13:53;;;;;;;;;1.00;1.00;;;;;20.85;44.84;102789.41;5055223;28;8866;-66
2022/07/17 10:16:29;;;;;;;;;0.75;0.25;;;;;20.93;44.85;102775.47;5039707;28;8963;-66
2022/07/17 10:18:58;;;;;;;;;0.25;0.25;;;;;20.96;44.83;102790.63;5043864;28;8831;-66
2022/07/17 10:21:27;;;;;;;;;0.25;0.25;;;;;20.99;45.21;102785.56;5035848;28;8814;-65
2022/07/17 10:23:53;;;;;;;;;1.50;1.00;;;;;21.06;44.72;102782.78;5049233;28;8841;-65
2022/07/17 10:26:32;;;;;;;;;0.75;0.75;;;;;21.13;44.78;102777.28;5055411;28;9531;-65
2022/07/17 10:28:59;;;;;;;;;0.00;0.00;;;;;21.27;43.87;102781.66;5055142;28;8817;-65
2022/07/17 10:31:29;;;;;;;;;1.00;1.00;;;;;21.30;43.03;102788.59;5048082;28;8819;-67
2022/07/17 10:34:01;;;;;;;;;1.00;1.00;;;;;21.25;43.43;102791.97;5046700;28;8845;-65
2022/07/17 10:36:39;;;;;;;;;2.00;0.50;;;;;21.26;43.57;102798.28;5036041;28;8835;-65
2022/07/17 10:39:20;;;;;;;;;0.00;0.00;;;;;21.31;43.25;102791.13;5045024;28;8821;-66
2022/07/17 10:42:00;;;;;;;;;1.00;0.25;;;;;21.31;42.87;102798.47;5055522;28;8804;-66
2022/07/17 10:44:29;;;;;;;;;1.50;1.50;;;;;21.31;42.86;102802.06;5055067;28;8828;-66
2022/07/17 10:46:56;;;;;;;;;0.00;0.00;;;;;21.30;42.99;102797.63;5049732;28;8838;-66
2022/07/17 10:49:24;;;;;;;;;1.00;1.00;;;;;21.32;42.17;102792.81;5046665;28;8804;-66
2022/07/17 10:51:52;;;;;;;;;1.00;1.00;;;;;21.35;42.44;102802.50;5055033;28;8833;-68
2022/07/17 10:54:20;;;;;;;;;1.00;1.00;;;;;21.33;42.87;102801.88;5054959;28;8871;-65
2022/07/17 10:56:48;;;;;;;;;0.75;0.75;;;;;21.36;42.75;102801.44;5054260;28;8953;-66
2022/07/17 10:59:14;;;;;;;;;0.75;0.75;;;;;21.42;42.40;102806.88;5054596;28;8878;-67
2022/07/17 11:01:41;;;;;;;;;0.25;0.25;;;;;21.48;41.89;102796.97;5052067;28;8821;-67
2022/07/17 11:04:08;;;;;;;;;2.25;1.00;;;;;21.50;41.75;102807.69;5041390;28;8849;-66
2022/07/17 11:06:37;;;;;;;;;0.50;0.50;;;;;21.50;41.82;102816.75;5044988;28;8928;-66
2022/07/17 11:09:04;;;;;;;;;2.00;2.00;;;;;21.59;41.42;102811.84;5041212;28;9708;-66
2022/07/17 11:12:03;;;;;;;;;1.25;1.25;;;;;21.64;41.30;102810.13;5054317;28;8843;-66
2022/07/17 11:14:31;;;;;;;;;1.00;1.00;;;;;21.63;41.02;102808.47;5020185;28;8848;-66
2022/07/17 11:16:59;;;;;;;;;1.25;1.25;;;;;21.60;41.51;102808.91;5044851;28;8838;-66
2022/07/17 11:19:43;;;;;;;;;0.00;0.00;;;;;21.57;42.10;102811.25;5050531;28;9648;-66
2022/07/17 11:22:11;;;;;;;;;0.50;0.50;;;;;21.63;41.96;102807.59;5054873;28;8897;-66
2022/07/17 11:24:43;;;;;;;;;1.25;1.00;;;;;21.68;41.49;102808.63;5053849;28;8844;-66
2022/07/17 11:27:31;;;;;;;;;1.00;1.00;;;;;21.75;41.40;102805.00;5053841;28;8836;-66
2022/07/17 11:29:59;;;;;;;;;1.00;1.00;;;;;21.77;41.19;102798.25;5052696;28;8846;-66
2022/07/17 11:32:38;;;;;;;;;2.50;1.00;;;;;21.84;41.25;102803.69;5041364;28;8834;-66
2022/07/17 11:35:19;;;;;;;;;1.00;1.00;;;;;21.90;41.50;102800.03;5045912;28;8969;-66
2022/07/17 11:38:05;;;;;;;;;1.00;1.00;;;;;22.03;41.01;102799.09;5053774;28;8923;-66
2022/07/17 11:40:32;;;;;;;;;1.25;1.25;;;;;22.09;40.26;102795.47;5035146;28;8890;-66
2022/07/17 11:43:01;;;;;;;;;1.50;1.00;;;;;22.06;41.26;102795.91;5036522;28;8820;-66
2022/07/17 11:45:28;;;;;;;;;1.00;1.00;;;;;22.09;41.91;102785.34;5053590;28;8820;-66